Time;durP1;ratioP1;P1;durP2;ratioP2;P2;SDS_P1;SDS_P2;PMS_P1;PMS_P2;Temp;Humidity;BMP_temperature;BMP_pressure;BME280_temperature;BME280_humidity;BME280_pressure;Samples;Min_cycle;Max_cycle;Signal;HPM_P1;HPM_P2
2023/08/28 00:01:03;;;;;;;5.18;3.65;;;;;;;-144.05;84.44;56925.28;5032486;28;20124;-80
2023/08/28 00:03:30;;;;;;;7.28;3.00;;;;;;;-144.05;83.59;56923.19;5047996;28;20037;-80
2023/08/28 00:05:56;;;;;;;9.65;3.15;;;;;;;-144.05;83.77;56933.78;5032750;28;20480;-80
2023/08/28 00:08:22;;;;;;;5.47;3.42;;;;;;;-144.05;83.99;56929.53;5032575;28;20033;-80
2023/08/28 00:10:52;;;;;;;7.88;3.60;;;;;;;-144.05;83.38;56950.78;5033084;28;20040;-80
2023/08/28 00:13:18;;;;;;;5.47;3.20;;;;;;;-144.05;82.95;56948.66;5032833;28;20116;-79
2023/08/28 00:15:44;;;;;;;5.13;3.28;;;;;;;-144.05;82.79;56927.41;5032868;28;20061;-81
2023/08/28 00:18:11;;;;;;;7.57;3.20;;;;;;;-144.05;82.64;56908.31;5032582;28;20404;-80
2023/08/28 00:20:37;;;;;;;5.38;2.75;;;;;;;-144.05;82.32;56929.53;5032387;28;20036;-80
2023/08/28 00:23:03;;;;;;;7.72;3.30;;;;;;;-144.05;82.25;56931.66;5032419;28;20053;-78
2023/08/28 00:25:29;;;;;;;6.68;2.58;;;;;;;-144.05;82.23;56929.53;5032601;28;20033;-81
2023/08/28 00:27:55;;;;;;;6.53;2.80;;;;;;;-144.05;81.84;56927.41;5031047;28;20152;-80
2023/08/28 00:30:22;;;;;;;3.13;2.45;;;;;;;-144.05;82.28;56946.53;5026897;28;20033;-80
2023/08/28 00:32:48;;;;;;;5.22;2.50;;;12.90;99.90;;;-144.05;81.85;56950.78;5027472;28;20030;-80
2023/08/28 00:35:15;;;;;;;6.22;2.55;;;;;;;-144.05;81.48;56946.53;5012351;28;20412;-79
2023/08/28 00:37:41;;;;;;;5.80;3.00;;;;;;;-144.05;81.44;56963.53;5011982;28;20026;-79
2023/08/28 00:40:08;;;;;;;5.57;2.30;;;;;;;-144.05;81.89;56933.78;5012170;28;20022;-80
2023/08/28 00:42:34;;;;;;;4.28;2.95;;;;;;;-144.05;81.67;56933.78;5012238;28;20053;-79
2023/08/28 00:45:01;;;;;;;7.28;2.95;;;;;;;-144.05;81.96;56908.31;5010711;28;20493;-80
2023/08/28 00:47:27;;;;;;;4.60;2.30;;;;;;;-144.05;81.26;56942.28;5012264;28;20097;-80
2023/08/28 00:49:53;;;;;;;6.25;2.40;;;;;;;-144.05;81.09;56921.06;5010934;28;20030;-82
2023/08/28 00:52:19;;;;;;;5.43;2.05;;;;;;;-144.05;81.08;56933.78;5013853;28;20033;-80
2023/08/28 00:54:46;;;;;;;3.30;2.35;;;;;;;-144.05;81.28;56955.03;5014237;28;20420;-79
2023/08/28 00:57:16;;;;;;;3.63;2.70;;;12.00;99.90;;;-144.05;81.20;56963.53;5029356;28;20034;-80
2023/08/28 00:59:44;;;;;;;2.45;1.65;;;11.00;99.90;;;-144.05;81.09;56948.66;5028933;28;20692;-81
2023/08/28 01:02:11;;;;;;;3.90;2.40;;;;;;;-144.05;81.41;56942.28;5014007;28;20030;-80
2023/08/28 01:04:37;;;;;;;3.45;2.38;;;;;;;-144.05;81.21;56933.78;5012397;28;20068;-80
2023/08/28 01:07:55;;;;;;;2.35;2.08;;;13.20;99.90;;;-144.05;81.34;56935.91;5012078;28;20396;-81
2023/08/28 01:10:33;;;;;;;;;;;15.40;99.90;;;-144.05;81.50;56933.78;5011932;28;20109;-80
2023/08/28 01:13:20;;;;;;;4.63;2.40;;;13.30;99.90;;;-144.05;81.79;56963.53;5011973;28;20357;-80
2023/08/28 01:15:47;;;;;;;4.47;2.85;;;;;;;-144.05;81.71;56935.91;5011826;28;20080;-80
2023/08/28 01:18:14;;;;;;;3.50;2.35;;;;;;;-144.05;81.37;56946.53;5010328;28;20042;-81
2023/08/28 01:20:42;;;;;;;4.38;3.03;;;;;;;-144.05;81.27;56925.28;5026781;28;20038;-79
2023/08/28 01:23:48;;;;;;;5.50;2.88;;;12.70;99.90;;;-144.05;81.29;56931.66;5011794;28;20383;-78
2023/08/28 01:26:16;;;;;;;5.25;2.92;;;;;;;-144.05;81.24;56933.78;5010745;28;20030;-79
2023/08/28 01:28:42;;;;;;;5.93;2.47;;;;;;;-144.05;81.55;56933.78;5026918;28;20465;-80
2023/08/28 01:31:08;;;;;;;3.10;2.70;;;;;;;-144.05;81.91;56946.53;5010603;28;20138;-79
2023/08/28 01:33:35;;;;;;;4.45;3.05;;;14.60;99.90;;;-144.05;81.59;56884.94;5012194;28;20026;-80
2023/08/28 01:36:33;;;;;;;4.28;2.70;;;15.60;99.90;;;-144.05;81.86;56963.53;5012001;28;20508;-80
2023/08/28 01:39:13;;;;;;;4.60;2.80;;;15.30;99.90;;;-144.05;82.20;56929.53;5011930;28;20086;-80
2023/08/28 01:41:41;;;;;;;3.75;2.80;;;14.40;99.90;;;-144.05;82.47;56910.44;5029998;28;20022;-82
2023/08/28 01:44:10;;;;;;;5.20;3.20;;;13.10;99.90;;;-144.05;82.61;56938.03;5019836;28;20037;-82
2023/08/28 01:46:37;;;;;;;4.50;3.30;;;;;;;-144.05;82.54;56959.28;5017813;28;20030;-81
2023/08/28 01:49:05;;;;;;;4.32;3.10;;;;;;;-144.05;82.69;56938.03;5017451;28;20039;-80
2023/08/28 01:51:31;;;;;;;3.78;3.15;;;;;;;-144.05;83.41;56942.28;5015399;28;20388;-81
2023/08/28 01:53:57;;;;;;;6.90;3.58;;;;;;;-144.05;83.11;56950.78;5016077;28;20030;-81
2023/08/28 01:56:24;;;;;;;6.18;3.40;;;;;;;-144.05;83.55;56942.28;5014490;28;20037;-79
2023/08/28 01:58:57;;;;;;;5.95;3.47;;;11.70;99.90;;;-144.05;82.99;56950.78;5014861;28;20065;-81
2023/08/28 02:01:26;;;;;;;5.40;3.65;;;11.80;99.90;;;-144.05;82.73;56940.16;5016021;28;20041;-80
2023/08/28 02:03:52;;;;;;;6.88;4.28;;;;;;;-144.05;82.45;56927.41;5015627;28;20022;-81
2023/08/28 02:06:19;;;;;;;5.28;3.60;;;;;;;-144.05;82.20;56948.66;5015216;28;20036;-81
2023/08/28 02:08:46;;;;;;;3.95;3.42;;;;;;;-144.05;82.80;56901.94;5015358;28;20069;-80
2023/08/28 02:11:12;;;;;;;4.72;3.10;;;;;;;-144.05;82.79;56959.28;5015264;28;20076;-81
2023/08/28 02:13:39;;;;;;;4.65;3.53;;;;;;;-144.05;82.79;56916.81;5015397;28;20384;-81
2023/08/28 02:16:05;;;;;;;4.63;3.60;;;;;;;-144.05;82.67;56942.28;5015100;28;20087;-81
2023/08/28 02:18:31;;;;;;;5.28;3.25;;;;;;;-144.05;82.72;56946.53;5014980;28;20144;-80
2023/08/28 02:20:58;;;;;;;4.60;3.25;;;;;;;-144.05;82.56;56940.16;5014605;28;20029;-80
2023/08/28 02:23:28;;;;;;;5.18;2.95;;;;;;;-144.05;82.30;56935.91;5014897;28;20029;-81
2023/08/28 02:25:54;;;;;;;5.05;3.17;;;;;;;-144.05;82.72;56955.03;5013560;28;20037;-81
2023/08/28 02:28:21;;;;;;;5.05;3.00;;;;;;;-144.05;82.84;56921.06;5013723;28;20034;-80
2023/08/28 02:30:48;;;;;;;7.95;3.22;;;14.70;99.90;;;-144.05;83.07;56963.53;5034237;28;20056;-78
2023/08/28 02:33:14;;;;;;;5.60;2.97;;;;;;;-144.05;83.14;56935.91;5049887;28;20034;-80
2023/08/28 02:35:41;;;;;;;5.28;4.00;;;;;;;-144.05;83.41;56961.41;5034471;28;20096;-81
2023/08/28 02:38:08;;;;;;;6.95;4.55;;;;;;;-144.05;83.69;56955.03;5034598;28;20080;-81
2023/08/28 02:40:39;;;;;;;8.05;5.03;;;16.00;99.90;;;-144.05;84.04;56933.78;5034245;28;20033;-81
2023/08/28 02:43:07;;;;;;;8.35;4.53;;;12.80;99.90;;;-144.05;84.29;56938.03;5034422;28;20025;-80
2023/08/28 02:45:35;;;;;;;5.25;4.00;;;14.50;99.90;;;-144.05;84.35;56942.28;5032549;28;20041;-80
2023/08/28 02:48:03;;;;;;;6.13;4.53;;;;;;;-144.05;84.74;56974.16;5049179;28;20370;-80
2023/08/28 02:50:34;;;;;;;7.05;5.28;;;;;;;-144.05;84.23;56929.53;5034198;28;20025;-80
2023/08/28 02:53:00;;;;;;;5.35;4.50;;;;;;;-144.05;83.87;56935.91;5033850;28;20051;-80
2023/08/28 02:55:30;;;;;;;7.00;4.65;;;;;;;-144.05;83.76;56929.53;5034207;28;20021;-80
2023/08/28 02:57:56;;;;;;;6.45;4.95;;;;;;;-144.05;83.91;56942.28;5032797;28;20112;-79
2023/08/28 03:00:22;;;;;;;8.40;5.00;;;;;;;-144.05;83.97;56948.66;5033757;28;20413;-80
2023/08/28 03:02:48;;;;;;;8.65;5.20;;;;;;;-144.05;84.17;56933.78;5033927;28;20429;-80
2023/08/28 03:05:15;;;;;;;9.95;5.30;;;;;;;-144.05;84.49;56950.78;5034256;28;20425;-80
2023/08/28 03:07:42;;;;;;;7.68;4.38;;;;;;;-144.05;83.88;56923.19;5033930;28;20087;-80
2023/08/28 03:10:09;;;;;;;7.07;4.10;;;;;;;-144.05;83.97;56944.41;5033455;28;20083;-81
2023/08/28 03:12:35;;;;;;;8.40;5.45;;;;;;;-144.05;84.04;56967.78;5049018;28;20029;-80
2023/08/28 03:15:02;;;;;;;6.22;4.97;;;;;;;-144.05;84.40;56927.41;5033546;28;20033;-80
2023/08/28 03:17:28;;;;;;;7.03;4.55;;;;;;;-144.05;84.39;56946.53;5032406;28;20037;-80
2023/08/28 03:19:54;;;;;;;8.27;4.68;;;;;;;-144.05;84.22;56967.78;5034006;28;20543;-79
2023/08/28 03:22:21;;;;;;;6.90;4.97;;;;;;;-144.05;84.50;56959.28;5032163;28;20485;-79
2023/08/28 03:24:47;;;;;;;6.05;4.47;;;;;;;-144.05;83.89;56929.53;5033368;28;20049;-80
2023/08/28 03:27:13;;;;;;;8.48;4.95;;;;;;;-144.05;83.87;56963.53;5032249;28;20480;-80
2023/08/28 03:29:39;;;;;;;10.50;5.00;;;;;;;-144.05;83.82;56963.53;5032910;28;20039;-80
2023/08/28 03:32:05;;;;;;;8.05;3.72;;;;;;;-144.05;83.58;56957.16;5033311;28;20040;-79
2023/08/28 03:34:32;;;;;;;6.35;4.30;;;;;;;-144.05;83.68;56963.53;5048380;28;20027;-80
2023/08/28 03:36:58;;;;;;;6.05;4.88;;;;;;;-144.05;84.02;56921.06;5033398;28;20029;-81
2023/08/28 03:39:24;;;;;;;7.25;5.20;;;;;;;-144.05;84.44;56961.41;5048796;28;20183;-80
2023/08/28 03:41:50;;;;;;;8.13;5.38;;;;;;;-144.05;84.49;56950.78;5031927;28;20045;-80
2023/08/28 03:44:17;;;;;;;5.72;5.07;;;;;;;-144.05;84.36;56935.91;5033309;28;20133;-79
2023/08/28 03:46:43;;;;;;;9.70;5.45;;;;;;;-144.05;84.92;56946.53;5033378;28;20036;-79
2023/08/28 03:49:09;;;;;;;6.63;4.63;;;;;;;-144.05;84.54;56948.66;5033792;28;20139;-80
2023/08/28 03:51:36;;;;;;;5.90;4.93;;;;;;;-144.05;84.57;56969.91;5033964;28;20176;-81
2023/08/28 03:54:02;;;;;;;9.15;5.90;;;13.30;99.90;;;-144.05;85.15;56931.66;5034098;28;20041;-79
2023/08/28 03:56:29;;;;;;;8.13;5.60;;;;;;;-144.05;85.00;56935.91;5034092;28;20100;-80
2023/08/28 03:58:56;;;;;;;6.40;5.35;;;;;;;-144.05;85.26;56925.28;5033652;28;20044;-81
2023/08/28 04:01:22;;;;;;;6.93;5.40;;;;;;;-144.05;85.13;56933.78;5032247;28;20079;-80
2023/08/28 04:03:48;;;;;;;7.63;4.72;;;;;;;-144.05;84.80;56946.53;5032046;28;20032;-80
2023/08/28 04:06:15;;;;;;;6.90;4.75;;;;;;;-144.05;84.56;56967.78;5031253;28;20571;-80
2023/08/28 04:08:41;;;;;;;6.03;4.47;;;;;;;-144.05;84.66;56940.16;5032498;28;20036;-80
2023/08/28 04:11:07;;;;;;;4.78;3.60;;;;;;;-144.05;84.74;56959.28;5032240;28;20125;-80
2023/08/28 04:13:33;;;;;;;6.03;4.57;;;;;;;-144.05;84.95;56963.53;5032654;28;20508;-80
2023/08/28 04:15:59;;;;;;;5.93;4.43;;;;;;;-144.05;84.94;56961.41;5047855;28;20025;-80
2023/08/28 04:18:25;;;;;;;7.53;4.82;;;;;;;-144.05;84.85;56952.91;5032717;28;20108;-80
2023/08/28 04:20:52;;;;;;;6.32;4.25;;;;;;;-144.05;84.99;56955.03;5031600;28;20405;-80
2023/08/28 04:23:18;;;;;;;5.35;3.97;;;;;;;-144.05;85.12;56957.16;5032699;28;20040;-80
2023/08/28 04:25:45;;;;;;;4.63;3.38;;;;;;;-144.05;85.24;56963.53;5032389;28;20113;-81
2023/08/28 04:28:12;;;;;;;7.90;4.57;;;;;;;-144.05;85.49;56901.94;5032614;28;20029;-79
2023/08/28 04:30:38;;;;;;;9.10;5.47;;;;;;;-144.05;85.55;56967.78;5035961;28;20520;-79
2023/08/28 04:33:05;;;;;;;10.68;5.63;;;;;;;-144.05;85.71;56976.28;5046024;28;20029;-82
2023/08/28 04:35:31;;;;;;;8.57;6.85;;;;;;;-144.05;86.14;56950.78;5035782;28;20034;-81
2023/08/28 04:37:58;;;;;;;10.93;7.88;;;;;;;-144.05;86.93;56946.53;5034857;28;20029;-80
2023/08/28 04:40:24;;;;;;;10.68;7.43;;;;;;;-144.05;86.40;56938.03;5032674;28;20412;-81
2023/08/28 04:42:50;;;;;;;9.98;7.13;;;;;;;-144.05;86.35;56942.28;5015611;28;20026;-81
2023/08/28 04:45:16;;;;;;;10.82;7.05;;;;;;;-144.05;86.23;56944.41;5033447;28;20113;-80
2023/08/28 04:47:43;;;;;;;11.80;8.05;;;;;;;-144.05;85.95;56959.28;5032712;28;20025;-81
2023/08/28 04:50:09;;;;;;;9.95;7.07;;;;;;;-144.05;85.84;56957.16;5032662;28;20034;-81
2023/08/28 04:52:35;;;;;;;12.20;8.00;;;;;;;-144.05;85.94;56935.91;5031866;28;20037;-80
2023/08/28 04:55:02;;;;;;;15.07;8.73;;;;;;;-144.05;85.89;56952.91;5032072;28;20674;-81
2023/08/28 04:57:28;;;;;;;12.95;9.40;;;;;;;-144.05;86.48;56940.16;5032087;28;20029;-80
2023/08/28 04:59:54;;;;;;;13.60;8.93;;;;;;;-144.05;86.40;56910.44;5033553;28;20037;-80
2023/08/28 05:02:20;;;;;;;17.63;9.43;;;;;;;-144.05;86.76;56925.28;5033410;28;20458;-81
2023/08/28 05:04:47;;;;;;;11.80;8.65;;;;;;;-144.05;86.57;56965.66;5033832;28;20057;-81
2023/08/28 05:07:13;;;;;;;11.98;8.63;;;;;;;-144.05;86.54;56923.19;5031741;28;20029;-80
2023/08/28 05:09:39;;;;;;;14.60;10.00;;;;;;;-144.05;86.50;56938.03;5033763;28;20124;-82
2023/08/28 05:12:06;;;;;;;13.43;8.52;;;;;;;-144.05;86.22;56942.28;5034166;28;20025;-79
2023/08/28 05:14:32;;;;;;;11.65;8.43;;;;;;;-144.05;86.10;56955.03;5032505;28;20025;-79
2023/08/28 05:16:58;;;;;;;12.98;9.30;;;;;;;-144.05;85.92;56946.53;5037616;28;20113;-79
2023/08/28 05:19:24;;;;;;;12.15;9.00;;;;;;;-144.05;85.92;56910.44;5037420;28;20025;-80
2023/08/28 05:21:51;;;;;;;13.77;8.75;;;;;;;-144.05;85.74;56927.41;5037652;28;20123;-80
2023/08/28 05:24:17;;;;;;;13.32;9.98;;;;;;;-144.05;85.61;56957.16;5036207;28;20468;-80
2023/08/28 05:26:43;;;;;;;14.80;9.93;;;;;;;-144.05;85.69;56921.06;5051892;28;20120;-80
2023/08/28 05:29:09;;;;;;;14.50;9.95;;;;;;;-144.05;85.56;56942.28;5037258;28;20089;-79
2023/08/28 05:31:35;;;;;;;16.13;9.75;;;;;;;-144.05;85.12;56946.53;5036143;28;20120;-81
2023/08/28 05:34:02;;;;;;;16.00;10.02;;;;;;;-144.05;85.22;56944.41;5035871;28;20033;-79
2023/08/28 05:36:28;;;;;;;13.85;9.65;;;;;;;-144.05;84.91;56950.78;5037868;28;20053;-83
2023/08/28 05:38:54;;;;;;;19.02;10.52;;;;;;;-144.05;85.01;56955.03;5053584;28;20033;-83
2023/08/28 05:41:20;;;;;;;14.38;9.75;;;;;;;-144.05;84.21;56938.03;5053593;28;20025;-83
2023/08/28 05:43:47;;;;;;;15.45;9.60;;;;;;;-144.05;84.16;56957.16;5038748;28;20017;-84
2023/08/28 05:46:13;;;;;;;15.25;9.70;;;;;;;-144.05;83.66;56950.78;5037191;28;20108;-81
2023/08/28 05:48:39;;;;;;;16.40;9.98;;;;;;;-144.05;83.41;56965.66;5036467;28;20039;-80
2023/08/28 05:51:05;;;;;;;14.32;9.15;;;;;;;-144.05;83.31;56938.03;5038224;28;20473;-80
2023/08/28 05:53:32;;;;;;;12.57;9.10;;;;;;;-144.05;82.72;56959.28;5053306;28;20037;-82
2023/08/28 05:55:58;;;;;;;14.88;9.05;;;;;;;-144.05;82.13;56957.16;5041035;28;20029;-81
2023/08/28 05:58:24;;;;;;;10.90;8.07;;;;;;;-144.05;81.93;56957.16;5037126;28;20033;-83
2023/08/28 06:00:51;;;;;;;11.27;7.78;;;;;;;-144.05;80.66;56927.41;5038510;28;20034;-80
2023/08/28 06:03:17;;;;;;;11.60;8.45;;;;;;;-144.05;79.32;56950.78;5037445;28;20021;-82
2023/08/28 06:05:44;;;;;;;10.02;7.28;;;;;;;-144.05;78.82;56916.81;5036193;28;20045;-81
2023/08/28 06:08:10;;;;;;;8.88;7.13;;;;;;;-144.05;78.12;56948.66;5035803;28;20044;-81
2023/08/28 06:10:40;;;;;;;11.45;6.82;;;;;;;-144.05;76.67;56948.66;5035552;28;20377;-81
2023/08/28 06:13:07;;;;;;;10.98;7.15;;;;;;;-144.05;75.83;56938.03;5037442;28;20049;-80
2023/08/28 06:15:33;;;;;;;9.13;6.05;;;;;;;-144.05;75.40;56904.06;5037372;28;20037;-82
2023/08/28 06:18:00;;;;;;;9.52;7.15;;;;;;;-144.05;73.99;56929.53;5037258;28;20022;-81
2023/08/28 06:20:26;;;;;;;9.43;6.35;;;;;;;-144.05;72.96;56921.06;5038437;28;20029;-80
2023/08/28 06:22:52;;;;;;;9.50;6.40;;;;;;;-144.05;72.12;56948.66;5038904;28;20033;-81
2023/08/28 06:25:19;;;;;;;10.07;6.32;;;;;;;-144.05;71.79;56891.31;5039619;28;20543;-80
2023/08/28 06:27:45;;;;;;;10.93;7.57;;;;;;;-144.05;70.78;56959.28;5039696;28;20404;-81
2023/08/28 06:30:12;;;;;;;10.23;7.70;;;;;;;-144.05;70.88;56933.78;5040311;28;20029;-80
2023/08/28 06:32:38;;;;;;;11.00;6.10;;;;;;;-144.05;70.56;56914.69;5042486;28;20120;-81
2023/08/28 06:35:05;;;;;;;9.75;6.63;;;;;;;-144.05;70.05;56955.03;5042586;28;20389;-82
2023/08/28 06:37:31;;;;;;;9.95;6.70;;;;;;;-144.05;69.63;56933.78;5040147;28;20072;-81
2023/08/28 06:39:57;;;;;;;9.48;6.32;;;;;;;-144.05;68.59;56955.03;5037709;28;20030;-79
2023/08/28 06:42:23;;;;;;;10.18;7.10;;;;;;;-144.05;69.21;56942.28;5041065;28;20032;-81
2023/08/28 06:44:50;;;;;;;12.98;7.05;;;;;;;-144.05;69.65;56959.28;5041432;28;20421;-81
2023/08/28 06:47:16;;;;;;;13.65;6.95;;;;;;;-144.05;69.76;56933.78;5041333;28;20021;-80
2023/08/28 06:49:43;;;;;;;9.50;6.70;;;;;;;-144.05;69.33;56923.19;5042291;28;20032;-79
2023/08/28 06:52:09;;;;;;;11.90;7.10;;;;;;;-144.05;67.76;56935.91;5042167;28;20038;-81
2023/08/28 06:54:36;;;;;;;12.35;6.80;;;;;;;-144.05;68.98;56904.06;5041169;28;20037;-80
2023/08/28 06:57:02;;;;;;;13.02;7.32;;;;;;;-144.05;68.14;56895.56;5047129;28;20036;-81
2023/08/28 06:59:29;;;;;;;11.10;7.47;;;;;;;-144.05;68.20;56955.03;5045599;28;20036;-83
2023/08/28 07:01:55;;;;;;;9.80;6.00;;;;;;;-144.05;67.84;56940.16;5047665;28;20041;-81
2023/08/28 07:04:21;;;;;;;11.10;7.65;;;;;;;-144.05;68.32;56927.41;5049002;28;20441;-77
2023/08/28 07:06:47;;;;;;;10.52;6.32;;;;;;;-144.05;67.99;56955.03;5042258;28;20029;-82
2023/08/28 07:09:14;;;;;;;13.07;7.38;;;;;;;-144.05;67.15;56942.28;5046965;28;20059;-81
2023/08/28 07:11:41;;;;;;;10.52;7.00;;;;;;;-144.05;67.44;56963.53;5048394;28;20040;-83
2023/08/28 07:14:08;;;;;;;11.65;7.07;;;;;;;-144.05;67.30;56972.03;5038221;28;20680;-81
2023/08/28 07:16:34;;;;;;;17.48;8.55;;;;;;;-144.05;68.01;56946.53;5036448;28;20128;-78
2023/08/28 07:19:00;;;;;;;13.18;8.38;;;;;;;-144.05;68.59;56940.16;5037636;28;20033;-80
2023/08/28 07:21:27;;;;;;;15.30;8.35;;;;;;;-144.05;67.86;56935.91;5039583;28;20108;-81
2023/08/28 07:23:53;;;;;;;8.90;7.03;;;;;;;-144.05;67.36;56935.91;5038228;28;20022;-81
2023/08/28 07:26:19;;;;;;;11.63;7.05;;;;;;;-144.05;67.14;56916.81;5038294;28;20039;-81
2023/08/28 07:28:49;;;;;;;16.20;7.93;;;;;;;-144.05;66.46;56929.53;5037214;28;20093;-81
2023/08/28 07:31:16;;;;;;;11.60;7.43;;;17.60;99.90;;;-144.05;66.05;56957.16;5037922;28;20451;-81
2023/08/28 07:33:42;;;;;;;11.10;7.68;;;;;;;-144.05;65.82;56940.16;5038087;28;20048;-81
2023/08/28 07:36:08;;;;;;;13.13;6.78;;;;;;;-144.05;65.73;56938.03;5055146;28;20061;-80
2023/08/28 07:38:35;;;;;;;9.77;6.75;;;18.30;99.90;;;-144.05;65.02;56923.19;5042051;28;20060;-81
2023/08/28 07:41:01;;;;;;;12.88;7.40;;;;;;;-144.05;63.82;56927.41;5056132;28;20067;-80
2023/08/28 07:43:28;;;;;;;14.07;7.45;;;;;;;-144.05;64.26;56944.41;5041186;28;20437;-80
2023/08/28 07:45:54;;;;;;;11.85;6.82;;;;;;;-144.05;64.35;56914.69;5041786;28;20030;-81
2023/08/28 07:48:20;;;;;;;13.77;7.50;;;;;;;-144.05;62.81;56961.41;5042160;28;20030;-80
2023/08/28 07:50:46;;;;;;;15.60;7.03;;;;;;;-144.05;64.27;56957.16;5038320;28;20041;-82
2023/08/28 07:53:13;;;;;;;12.65;7.78;;;;;;;-144.05;62.67;56957.16;5039795;28;20057;-80
2023/08/28 07:55:39;;;;;;;11.68;6.65;;;;;;;-144.05;63.20;56957.16;5038613;28;20022;-81
2023/08/28 07:58:06;;;;;;;15.32;7.13;;;;;;;-144.05;61.66;56944.41;5037485;28;20080;-80
2023/08/28 08:00:34;;;;;;;14.10;7.10;;;;;;;-144.05;62.42;56959.28;5037669;28;20088;-81
2023/08/28 08:03:03;;;;;;;9.48;5.45;;;;;;;-144.05;61.26;56978.41;5038972;28;20026;-81
2023/08/28 08:05:31;;;;;;;12.07;6.45;;;;;;;-144.05;60.52;56967.78;5036190;28;20053;-82
2023/08/28 08:07:58;;;;;;;9.05;5.80;;;;;;;-144.05;58.99;56967.78;5036738;28;20345;-82
2023/08/28 08:10:24;;;;;;;12.52;6.13;;;;;;;-144.05;60.40;56950.78;5037689;28;20116;-82
2023/08/28 08:12:51;;;;;;;7.63;4.78;;;;;;;-144.05;59.35;56993.25;5038013;28;20113;-81
2023/08/28 08:15:17;;;;;;;8.52;4.82;;;;;;;-144.05;58.50;56976.28;5038232;28;20171;-82
2023/08/28 08:17:43;;;;;;;12.57;5.75;;;;;;;-144.05;57.49;56950.78;5054070;28;20025;-81
2023/08/28 08:20:11;;;;;;;7.90;4.55;;;21.60;99.90;;;-144.05;57.74;56999.63;5039998;28;20038;-80
2023/08/28 08:22:42;;;;;;;10.23;4.80;;;18.50;99.90;;;-144.05;55.94;56997.50;5039971;28;20031;-81
2023/08/28 08:25:10;;;;;;;7.32;4.57;;;;;;;-144.05;55.99;56982.66;5039029;28;20057;-81
2023/08/28 08:27:38;;;;;;;8.50;4.00;;;;;;;-144.05;55.33;56997.50;5042772;28;20021;-79
2023/08/28 08:30:08;;;;;;;15.27;5.85;;;21.70;99.90;;;-144.05;54.73;57006.00;5044885;28;20037;-80
2023/08/28 08:32:35;;;;;;;7.18;4.78;;;;;;;-144.05;55.46;56993.25;5041105;28;20048;-81
2023/08/28 08:35:05;;;;;;;9.57;3.95;;;20.40;99.90;;;-144.05;55.91;57012.38;5041077;28;20033;-81
2023/08/28 08:37:32;;;;;;;8.68;4.10;;;;;;;-144.05;54.15;56993.25;5040121;28;20056;-80
2023/08/28 08:39:58;;;;;;;6.88;3.92;;;;;;;-144.05;53.35;57003.88;5039980;28;20156;-79
2023/08/28 08:42:25;;;;;;;7.63;3.33;;;;;;;-144.05;52.99;56997.50;5041655;28;20354;-79
2023/08/28 08:44:51;;;;;;;7.15;3.55;;;;;;;-144.05;52.24;56986.91;5041089;28;20385;-78
2023/08/28 08:47:18;;;;;;;7.00;3.30;;;;;;;-144.05;52.46;56997.50;5040995;28;20080;-80
2023/08/28 08:49:54;;;;;;;9.77;3.60;;;20.30;99.90;;;-144.05;53.93;57008.13;5040791;28;20026;-78
2023/08/28 08:52:22;;;;;;;5.15;3.08;;;20.00;99.90;;;-144.05;54.95;56986.91;5040709;28;20056;-79
2023/08/28 08:54:59;;;;;;;4.10;2.58;;;19.70;99.90;;;-144.05;55.96;56967.78;5040832;28;20061;-78
2023/08/28 08:57:45;;;;;;;6.25;2.40;;;19.40;99.90;;;-144.05;55.85;56984.78;5041087;28;20113;-80
2023/08/28 09:00:15;;;;;;;5.40;2.72;;;19.40;99.90;;;-144.05;57.01;56989.00;5065869;28;20116;-80
2023/08/28 09:02:42;;;;;;;3.75;2.47;;;19.90;99.90;;;-144.05;54.51;57001.75;5046492;28;20021;-80
2023/08/28 09:05:09;;;;;;;5.30;2.67;;;20.20;99.90;;;-144.05;52.45;56986.91;5043460;28;20033;-81
2023/08/28 09:07:39;;;;;;;5.90;2.22;;;21.90;99.90;;;-144.05;50.91;57012.38;5042685;28;20497;-79
2023/08/28 09:10:07;;;;;;;4.28;2.00;;;;;;;-144.05;49.37;56989.00;5041257;28;20037;-81
2023/08/28 09:12:33;;;;;;;5.88;1.95;;;;;;;-144.05;49.74;57010.25;5040506;28;20037;-81
2023/08/28 09:14:59;;;;;;;3.00;1.77;;;;;;;-144.05;50.96;57006.00;5038337;28;20425;-80
2023/08/28 09:17:26;;;;;;;6.00;1.98;;;;;;;-144.05;51.01;56991.13;5036871;28;20083;-79
2023/08/28 09:19:53;;;;;;;2.15;1.45;;;;;;;-144.05;52.09;56984.78;5038515;28;20044;-81
2023/08/28 09:22:27;;;;;;;4.97;2.08;;;19.50;99.90;;;-144.05;53.35;57001.75;5038841;28;20512;-82
2023/08/28 09:24:55;;;;;;;5.07;2.20;;;;;;;-144.05;54.34;56969.91;5036957;28;20056;-79
2023/08/28 09:27:21;;;;;;;4.53;2.40;;;;;;;-144.05;54.96;56963.53;5037617;28;20037;-80
2023/08/28 09:29:48;;;;;;;4.88;2.10;;;;;;;-144.05;55.45;56955.03;5036595;28;20429;-80
2023/08/28 09:32:14;;;;;;;9.27;2.03;;;;;;;-144.05;56.08;56997.50;5036519;28;20040;-79
2023/08/28 09:34:41;;;;;;;7.55;2.40;;;19.50;99.90;;;-144.05;56.15;56978.41;5038539;28;20040;-78
2023/08/28 09:37:11;;;;;;;2.80;1.52;;;18.90;99.90;;;-144.05;55.67;56976.28;5053356;28;20025;-78
2023/08/28 09:39:41;;;;;;;3.83;2.03;;;;;;;-144.05;55.39;56989.00;5038058;28;20041;-80
2023/08/28 09:42:10;;;;;;;6.25;1.90;;;21.30;99.90;;;-144.05;54.56;56957.16;5037730;28;20038;-79
2023/08/28 09:44:37;;;;;;;5.85;2.08;;;;;;;-144.05;54.47;56986.91;5039043;28;20128;-80
2023/08/28 09:47:04;;;;;;;3.13;1.65;;;21.00;99.90;;;-144.05;54.65;56980.53;5038919;28;20029;-79
2023/08/28 09:49:30;;;;;;;4.03;1.73;;;;;;;-144.05;55.36;56997.50;5053615;28;20033;-79
2023/08/28 09:51:59;;;;;;;6.00;1.52;;;;;;;-144.05;55.34;56995.38;5039189;28;20021;-79
2023/08/28 09:54:26;;;;;;;3.28;1.70;;;;;;;-144.05;54.20;56989.00;5038407;28;20493;-80
2023/08/28 09:56:53;;;;;;;7.55;1.80;;;21.50;99.90;;;-144.05;54.57;56997.50;5038063;28;20128;-80
2023/08/28 09:59:19;;;;;;;2.95;1.38;;;;;;;-144.05;53.27;57003.88;5041576;28;20034;-79
2023/08/28 10:01:50;;;;;;;2.20;1.48;;;22.10;99.90;;;-144.05;52.44;56999.63;5042697;28;20036;-80
2023/08/28 10:04:20;;;;;;;4.43;1.90;;;21.70;99.90;;;-144.05;51.76;56995.38;5043579;28;20018;-80
2023/08/28 10:06:52;;;;;;;4.07;1.70;;;21.40;99.90;;;-144.05;51.80;57001.75;5043828;28;20124;-81
2023/08/28 10:09:22;;;;;;;3.20;1.33;;;22.60;99.90;;;-144.05;52.15;57016.63;5042037;28;20091;-82
2023/08/28 10:11:50;;;;;;;3.80;1.73;;;22.80;99.90;;;-144.05;51.09;57006.00;5038930;28;20043;-78
2023/08/28 10:14:20;;;;;;;4.05;1.23;;;22.60;99.90;;;-144.05;50.58;57008.13;5053300;28;20080;-79
2023/08/28 10:16:59;;;;;;;4.13;1.95;;;21.30;99.90;;;-144.05;50.50;57001.75;5038648;28;20084;-80
2023/08/28 10:19:42;;;;;;;2.72;1.65;;;22.00;99.90;;;-144.05;50.46;56989.00;5037574;28;20029;-80
2023/08/28 10:22:09;;;;;;;4.18;1.77;;;21.00;99.90;;;-144.05;51.09;57010.25;5053187;28;20029;-78
2023/08/28 10:24:40;;;;;;;3.80;1.60;;;22.30;99.90;;;-144.05;50.70;57018.75;5038096;28;20065;-79
2023/08/28 10:27:08;;;;;;;3.65;2.00;;;21.30;99.90;;;-144.05;51.18;56993.25;5038698;28;20029;-80
2023/08/28 10:29:37;;;;;;;4.35;1.65;;;;;;;-144.05;51.83;56991.13;5033465;28;20061;-81
2023/08/28 10:32:11;;;;;;;3.00;1.60;;;20.40;99.90;;;-144.05;49.46;56995.38;5016919;28;20030;-80
2023/08/28 10:34:44;;;;;;;2.28;1.42;;;16.10;99.90;;;-144.05;48.26;56999.63;5018320;28;20080;-79
2023/08/28 10:37:13;;;;;;;3.85;1.92;;;;;;;-144.05;50.62;57010.25;5034101;28;20113;-80
2023/08/28 10:39:42;;;;;;;2.97;1.42;;;15.60;99.90;;;-144.05;49.72;56965.66;5018452;28;20032;-80
2023/08/28 10:42:20;;;;;;;3.05;1.40;;;20.50;99.90;;;-144.05;50.96;57025.13;5017939;28;20029;-84
2023/08/28 10:44:47;;;;;;;4.35;2.25;;;20.40;99.90;;;-144.05;50.51;56986.91;5017301;28;20030;-82
2023/08/28 10:47:19;;;;;;;4.45;2.33;;;20.40;99.90;;;-144.05;52.10;56984.78;5019305;28;20042;-81
2023/08/28 10:49:46;;;;;;;3.60;2.25;;;;;;;-144.05;52.10;56986.91;5018922;28;20037;-81
2023/08/28 10:52:12;;;;;;;3.67;1.98;;;15.60;99.90;;;-144.05;51.43;56986.91;5018442;28;20029;-81
2023/08/28 10:54:43;;;;;;;5.22;2.28;;;20.80;99.90;;;-144.05;50.45;56972.03;5018422;28;20559;-79
2023/08/28 10:57:27;;;;;;;4.90;2.80;;;16.40;99.90;;;-144.05;48.61;57014.50;5019584;28;20481;-80
2023/08/28 10:59:55;;;;;;;9.73;3.42;;;;;;;-144.05;48.58;56989.00;5020076;28;20496;-80